Terminal Aerodrome Forecast
Issued by NWS Blacksburg, VA

Current Version | Previous Version | Graphics & Text | Print | Product List | Glossary On
Versions: 1 2 3 4 5 6 7 8 9 10 11 12 13 14 15 16 17 18 19 20 21 22 23 24 25
000
FTUS41 KRNK 220536
TAFBLF
TAF
KBLF 220536Z 2206/2306 31006KT P6SM SCT011 BKN017 OVC035
     FM220800 30010KT 6SM BR BKN007
      TEMPO 2208/2212 3SM BR
     FM221500 31011KT P6SM SCT030
     FM221800 28010G20KT P6SM SKC
     FM230000 28005KT P6SM SKC=

USA.gov is the U.S. government's official web portal to all federal, state and local government web resources and services.